< < Back
Terminal Aerodrome Forecast


Current Version              Previous Versions:   1  2  3  4  5  6  7  8  9  

Terminal Aerodrome Forecast

600
FTUS42 KCAE 210900 AAC
TAFCAE
TAF AMD
KCAE 210909Z 2109/2206 02004KT P6SM SCT025 OVC040
     FM211000 VRB03KT P6SM SCT010 OVC015
     FM211300 05004KT P6SM BKN015 OVC025
     FM212000 06005KT P6SM VCSH OVC015=



Latest METAR

201
SAUS80 KWBC 211900
MTRCAE
METAR KCAE 211856Z 06006KT 10SM FEW036 OVC090 12/04 A3018 RMK AO2 SLP219
T01220039


USA.gov is the U.S. government's official web portal to all federal, state and local government web resources and services.